Time;durP1;ratioP1;P1;durP2;ratioP2;P2;SDS_P1;SDS_P2;PMS_P1;PMS_P2;Temp;Humidity;BMP_temperature;BMP_pressure;BME280_temperature;BME280_humidity;BME280_pressure;Samples;Min_cycle;Max_cycle;Signal;HPM_P1;HPM_P2
2021/10/09 00:02:06;;;;;;;36.67;28.03;;;;;;;;;;5093892;28;20443;-70
2021/10/09 00:04:33;;;;;;;35.93;27.87;;;;;;;;;;5093795;28;20467;-71
2021/10/09 00:07:00;;;;;;;44.97;28.70;;;;;;;;;;5094081;28;20450;-71
2021/10/09 00:09:28;;;;;;;36.33;27.70;;;;;;;;;;5094067;28;20534;-71
2021/10/09 00:11:55;;;;;;;34.27;26.80;;;;;;;;;;5093301;28;20957;-71
2021/10/09 00:14:23;;;;;;;40.90;29.10;;;;;;;;;;5093569;28;20855;-71
2021/10/09 00:16:50;;;;;;;39.87;28.93;;;;;;;;;;5093216;28;20475;-71
2021/10/09 00:19:18;;;;;;;40.10;27.40;;;;;;;;;;5093202;28;21037;-70
2021/10/09 00:21:46;;;;;;;39.20;28.87;;;;;;;;;;5093212;28;20964;-70
2021/10/09 00:24:13;;;;;;;39.57;28.87;;;;;;;;;;5093145;28;20439;-72
2021/10/09 00:26:40;;;;;;;42.10;30.80;;;;;;;;;;5094052;28;20476;-71
2021/10/09 00:29:08;;;;;;;41.50;28.87;;;;;;;;;;5093410;28;20630;-71
2021/10/09 00:31:35;;;;;;;37.80;29.23;;;;;;;;;;5093405;28;20440;-71
2021/10/09 00:34:02;;;;;;;40.50;28.10;;;;;;;;;;5093666;28;20457;-71
2021/10/09 00:36:31;;;;;;;42.73;29.70;;;;;;;;;;5093012;28;20444;-71
2021/10/09 00:38:58;;;;;;;42.33;29.90;;;;;;;;;;5096761;28;20525;-71
2021/10/09 00:41:25;;;;;;;39.23;28.77;;;;;;;;;;5097040;28;20538;-71
2021/10/09 00:43:53;;;;;;;40.77;29.93;;;;;;;;;;5097299;28;20545;-72
2021/10/09 00:46:20;;;;;;;39.03;28.40;;;;;;;;;;5097392;28;20438;-72
2021/10/09 00:48:48;;;;;;;43.30;30.13;;;;;;;;;;5096847;28;20507;-71
2021/10/09 00:51:15;;;;;;;40.93;28.67;;;;;;;;;;5097248;28;20447;-71
2021/10/09 00:53:46;;;;;;;42.00;28.70;;;;;;;;;;5096827;28;20442;-71
2021/10/09 00:56:13;;;;;;;39.23;30.50;;;;;;;;;;5097761;28;20428;-71
2021/10/09 00:58:41;;;;;;;44.87;31.13;;;;;;;;;;5096741;28;20446;-71
2021/10/09 01:01:08;;;;;;;47.47;31.17;;;;;;;;;;5096948;28;20454;-71
2021/10/09 01:03:35;;;;;;;42.97;32.50;;;;;;;;;;5096834;28;20570;-70
2021/10/09 01:06:02;;;;;;;46.33;32.03;;;;;;;;;;5096969;28;20470;-71
2021/10/09 01:08:30;;;;;;;44.73;33.23;;;;;;;;;;5096430;28;20566;-71
2021/10/09 01:10:58;;;;;;;52.07;34.67;;;;;;;;;;5096834;28;20550;-71
2021/10/09 01:13:25;;;;;;;41.57;30.77;;;;;;;;;;5096988;28;20549;-70
2021/10/09 01:15:53;;;;;;;46.77;34.63;;;;;;;;;;5096806;28;20435;-70
2021/10/09 01:18:20;;;;;;;48.50;35.23;;;;;;;;;;5096629;28;20435;-70
2021/10/09 01:20:50;;;;;;;46.70;33.60;;;;;;;;;;5096621;28;20522;-70
2021/10/09 01:23:17;;;;;;;51.43;34.17;;;;;;;;;;5096547;28;20457;-70
2021/10/09 01:25:44;;;;;;;45.73;32.17;;;;;;;;;;5096426;28;20798;-70
2021/10/09 01:28:11;;;;;;;49.10;31.60;;;;;;;;;;5096110;28;20531;-70
2021/10/09 01:30:39;;;;;;;40.73;31.00;;;;;;;;;;5096277;28;20450;-71
2021/10/09 01:33:06;;;;;;;50.07;33.43;;;;;;;;;;5095962;28;20451;-70
2021/10/09 01:35:46;;;;;;;46.10;34.40;;;;;;;;;;5095992;28;20454;-70
2021/10/09 01:38:15;;;;;;;52.90;34.00;;;;;;;;;;5096037;28;20540;-70
2021/10/09 01:40:42;;;;;;;48.30;32.67;;;;;;;;;;5096346;28;20520;-70
2021/10/09 01:43:10;;;;;;;55.30;35.50;;;;;;;;;;5096380;28;20440;-70
2021/10/09 01:45:37;;;;;;;49.90;34.57;;;;;;;;;;5096372;28;20450;-70
2021/10/09 01:48:05;;;;;;;52.97;35.87;;;;;;;;;;5096148;28;20493;-71
2021/10/09 01:50:32;;;;;;;51.60;36.70;;;;;;;;;;5095064;28;20475;-70
2021/10/09 01:52:59;;;;;;;51.23;34.13;;;;;;;;;;5096064;28;20930;-70
2021/10/09 01:55:28;;;;;;;54.23;36.63;;;;;;;;;;5096344;28;20431;-70
2021/10/09 01:57:55;;;;;;;51.63;35.10;;;;;;;;;;5096464;28;20444;-71
2021/10/09 02:00:23;;;;;;;51.37;35.27;;;;;;;;;;5096432;28;20440;-70
2021/10/09 02:02:50;;;;;;;50.30;33.27;;;;;;;;;;5095449;28;20486;-71
2021/10/09 02:05:18;;;;;;;50.50;35.47;;;;;;;;;;5095860;28;20463;-71
2021/10/09 02:07:45;;;;;;;50.33;36.07;;;;;;;;;;5096266;28;20487;-71
2021/10/09 02:10:15;;;;;;;55.70;35.10;;;;;;;;;;5096024;28;20584;-71
2021/10/09 02:12:43;;;;;;;55.30;35.97;;;;;;;;;;5095344;28;20936;-70
2021/10/09 02:15:14;;;;;;;53.80;37.43;;;;;;;;;;5095885;28;20493;-71
2021/10/09 02:25:55;;;;;;;52.40;34.97;;;;;;;;;;5095509;28;20450;-70
2021/10/09 02:28:24;;;;;;;47.70;34.83;;;;;;;;;;5095161;28;20447;-70
2021/10/09 02:30:52;;;;;;;57.05;38.47;;;;;;;;;;5095890;28;20479;-70
2021/10/09 02:33:19;;;;;;;49.63;34.40;;;;;;;;;;5095578;28;20193;-70
2021/10/09 02:35:47;;;;;;;53.60;35.17;;;;;;;;;;5095322;28;20861;-71
2021/10/09 02:38:14;;;;;;;51.90;35.80;;;;;;;;;;5095874;28;20435;-70
2021/10/09 02:40:43;;;;;;;57.63;36.00;;;;;;;;;;5095282;28;20482;-71
2021/10/09 02:43:10;;;;;;;48.03;34.30;;;;;;;;;;5096082;28;20524;-70
2021/10/09 02:45:39;;;;;;;50.83;34.53;;;;;;;;;;5095877;28;20794;-70
2021/10/09 02:48:07;;;;;;;48.37;32.23;;;;;;;;;;5094910;28;20219;-72
2021/10/09 02:50:34;;;;;;;51.70;34.17;;;;;;;;;;5094494;28;20479;-71
2021/10/09 02:53:02;;;;;;;50.77;34.90;;;;;;;;;;5094943;28;20522;-72
2021/10/09 02:55:29;;;;;;;54.80;36.57;;;;;;;;;;5094891;28;20435;-71
2021/10/09 02:57:56;;;;;;;64.77;38.03;;;;;;;;;;5094802;28;20440;-71
2021/10/09 03:00:24;;;;;;;59.67;38.23;;;;;;;;;;5094398;28;20521;-71
2021/10/09 03:02:52;;;;;;;56.33;38.07;;;;;;;;;;5094011;28;20475;-71
2021/10/09 03:05:19;;;;;;;53.20;34.93;;;;;;;;;;5095050;28;20446;-71
2021/10/09 03:07:47;;;;;;;61.63;36.43;;;;;;;;;;5094778;28;20434;-71
2021/10/09 03:10:14;;;;;;;57.33;39.75;;;;;;;;;;5094131;28;20482;-71
2021/10/09 03:12:41;;;;;;;60.00;37.87;;;;;;;;;;5094474;28;20292;-72
2021/10/09 03:15:09;;;;;;;70.77;40.93;;;;;;;;;;5094318;28;20443;-71
2021/10/09 03:17:37;;;;;;;51.05;36.88;;;;;;;;;;5094337;28;20441;-71
2021/10/09 03:20:06;;;;;;;61.67;36.30;;;;;;;;;;5094524;28;20204;-71
2021/10/09 03:22:34;;;;;;;55.60;36.80;;;;;;;;;;5094400;28;20431;-71
2021/10/09 03:25:01;;;;;;;54.70;36.00;;;;;;;;;;5094235;28;20446;-71
2021/10/09 03:27:28;;;;;;;67.60;39.67;;;;;;;;;;5093903;28;20921;-70
2021/10/09 03:29:55;;;;;;;56.20;39.20;;;;;;;;;;5094186;28;20838;-71
2021/10/09 03:32:22;;;;;;;62.23;36.67;;;;;;;;;;5094232;28;20438;-71
2021/10/09 03:34:49;;;;;;;57.20;37.60;;;;;;;;;;5094046;28;20432;-72
2021/10/09 03:37:18;;;;;;;53.10;34.90;;;;;;;;;;5094681;28;20439;-71
2021/10/09 03:39:48;;;;;;;65.93;38.00;;;;;;;;;;5094058;28;20447;-71
2021/10/09 03:42:18;;;;;;;64.10;39.23;;;;;;;;;;5093954;28;20443;-72
2021/10/09 03:44:49;;;;;;;63.28;38.40;;;;;;;;;;5094381;28;20428;-71
2021/10/09 03:47:21;;;;;;;54.13;37.17;;;;;;;;;;5094371;28;20602;-71
2021/10/09 03:49:52;;;;;;;53.67;36.00;;;;;;;;;;5094496;28;20211;-71
2021/10/09 03:55:06;;;;;;;62.27;37.93;;;;;;;;;;5094132;28;20549;-73
2021/10/09 03:57:33;;;;;;;66.38;39.75;;;;;;;;;;5094265;28;20443;-72
2021/10/09 04:00:00;;;;;;;59.20;36.50;;;;;;;;;;5094236;28;20205;-71
2021/10/09 04:02:27;;;;;;;64.10;37.35;;;;;;;;;;5094047;28;20450;-71
2021/10/09 04:04:55;;;;;;;54.75;37.47;;;;;;;;;;5094289;28;20200;-71
2021/10/09 04:07:23;;;;;;;54.57;36.80;;;;;;;;;;5094406;28;20209;-71
2021/10/09 04:09:50;;;;;;;52.00;36.40;;;;;;;;;;5094083;28;20921;-72
2021/10/09 04:12:17;;;;;;;56.90;37.53;;;;;;;;;;5093507;28;20443;-71
2021/10/09 04:14:45;;;;;;;52.17;34.85;;;;;;;;;;5093929;28;20449;-71
2021/10/09 04:17:12;;;;;;;58.63;37.77;;;;;;;;;;5093541;28;20230;-71
2021/10/09 04:19:39;;;;;;;54.70;36.95;;;;;;;;;;5093246;28;20449;-75
2021/10/09 04:22:07;;;;;;;54.53;35.40;;;;;;;;;;5093534;28;20292;-75
2021/10/09 04:24:35;;;;;;;51.92;35.95;;;;;;;;;;5093510;28;20200;-75
2021/10/09 04:27:02;;;;;;;62.90;38.47;;;;;;;;;;5093935;28;20193;-75
2021/10/09 04:29:30;;;;;;;57.53;35.27;;;;;;;;;;5093333;28;20476;-75
2021/10/09 04:31:57;;;;;;;62.75;37.95;;;;;;;;;;5093418;28;20443;-76
2021/10/09 04:34:24;;;;;;;54.83;35.70;;;;;;;;;;5093078;28;20202;-74
2021/10/09 04:36:52;;;;;;;56.10;35.63;;;;;;;;;;5093777;28;20492;-75
2021/10/09 04:39:20;;;;;;;50.90;35.50;;;;;;;;;;5093357;28;20490;-74
2021/10/09 04:41:49;;;;;;;47.73;33.10;;;;;;;;;;5091694;28;20475;-75
2021/10/09 04:44:16;;;;;;;56.63;37.43;;;;;;;;;;5092253;28;20531;-76
2021/10/09 04:46:44;;;;;;;56.67;35.77;;;;;;;;;;5092108;28;20439;-74
2021/10/09 04:49:11;;;;;;;61.57;39.10;;;;;;;;;;5092279;28;20461;-74
2021/10/09 04:51:40;;;;;;;56.67;37.53;;;;;;;;;;5091858;28;20490;-74
2021/10/09 04:54:07;;;;;;;60.15;37.83;;;;;;;;;;5092006;28;20751;-74
2021/10/09 04:56:34;;;;;;;75.03;38.83;;;;;;;;;;5092251;28;20201;-75
2021/10/09 04:59:03;;;;;;;61.08;37.47;;;;;;;;;;5092271;28;20461;-73
2021/10/09 05:01:30;;;;;;;56.65;38.20;;;;;;;;;;5092159;28;20210;-76
2021/10/09 05:03:57;;;;;;;63.58;37.30;;;;;;;;;;5092227;28;20221;-75
2021/10/09 05:06:24;;;;;;;56.07;37.83;;;;;;;;;;5091994;28;20291;-75
2021/10/09 05:08:52;;;;;;;59.43;37.53;;;;;;;;;;5092388;28;20448;-74
2021/10/09 05:11:19;;;;;;;59.80;38.90;;;;;;;;;;5091721;28;20481;-74
2021/10/09 05:13:46;;;;;;;59.10;38.60;;;;;;;;;;5092234;28;20972;-75
2021/10/09 05:16:15;;;;;;;64.35;37.63;;;;;;;;;;5092343;28;20197;-76
2021/10/09 05:18:42;;;;;;;59.92;36.80;;;;;;;;;;5091788;28;20193;-75
2021/10/09 05:21:10;;;;;;;64.45;40.55;;;;;;;;;;5092382;28;20201;-74
2021/10/09 05:23:37;;;;;;;60.33;38.95;;;;;;;;;;5091813;28;20196;-75
2021/10/09 05:26:05;;;;;;;62.40;39.60;;;;;;;;;;5095302;28;20660;-74
2021/10/09 05:28:39;;;;;;;65.53;39.67;;;;;;;;;;5095312;28;20266;-74
2021/10/09 05:31:08;;;;;;;72.00;40.63;;;;;;;;;;5095755;28;20209;-75
2021/10/09 05:33:38;;;;;;;70.25;40.03;;;;;;;;;;5095458;28;20235;-74
2021/10/09 05:36:06;;;;;;;65.47;40.87;;;;;;;;;;5096399;28;20632;-74
2021/10/09 05:38:33;;;;;;;63.30;39.25;;;;;;;;;;5095694;28;20530;-74
2021/10/09 05:41:01;;;;;;;63.20;40.65;;;;;;;;;;5095809;28;20201;-74
2021/10/09 05:43:29;;;;;;;63.42;38.90;;;;;;;;;;5095636;28;20559;-73
2021/10/09 05:45:57;;;;;;;60.22;38.72;;;;;;;;;;5095253;28;20196;-73
2021/10/09 05:48:24;;;;;;;56.50;39.22;;;;;;;;;;5095364;28;20289;-76
2021/10/09 05:50:58;;;;;;;54.27;36.10;;;;;;;;;;5094961;28;20220;-75
2021/10/09 05:56:13;;;;;;;61.47;39.97;;;;;;;;;;5094896;28;20200;-75
2021/10/09 05:58:49;;;;;;;63.92;39.08;;;;;;;;;;5095209;28;20468;-75
2021/10/09 06:01:33;;;;;;;58.85;37.55;;;;;;;;;;5095415;28;20188;-75
2021/10/09 06:45:44;;;;;;;54.60;36.60;;;;;;;;;;5095782;28;20450;-74
2021/10/09 06:51:12;;;;;;;55.00;36.92;;;;;;;;;;5094419;28;20228;-74
2021/10/09 06:59:33;;;;;;;52.85;36.55;;;;;;;;;;5094640;28;20307;-74
2021/10/09 07:02:05;;;;;;;61.08;36.25;;;;;;;;;;5094560;28;20182;-74
2021/10/09 07:04:32;;;;;;;55.63;36.80;;;;;;;;;;5095104;28;20303;-75
2021/10/09 07:07:03;;;;;;;60.53;37.38;;;;;;;;;;5094788;28;20443;-75
2021/10/09 07:09:30;;;;;;;52.88;37.40;;;;;;;;;;5094472;28;20699;-75
2021/10/09 07:11:58;;;;;;;54.27;35.70;;;;;;;;;;5094814;28;20235;-74
2021/10/09 07:14:26;;;;;;;79.33;45.03;;;;;;;;;;5094415;28;20526;-74
2021/10/09 07:16:53;;;;;;;56.00;35.03;;;;;;;;;;5094377;28;20440;-75
2021/10/09 07:19:20;;;;;;;53.35;36.40;;;;;;;;;;5094349;28;20446;-75
2021/10/09 07:21:47;;;;;;;56.30;34.87;;;;;;;;;;5095097;28;20211;-75
2021/10/09 07:24:15;;;;;;;58.90;34.67;;;;;;;;;;5094257;28;20447;-75
2021/10/09 07:26:42;;;;;;;56.47;35.60;;;;;;;;;;5094586;28;20607;-75
2021/10/09 07:29:10;;;;;;;50.43;32.37;;;;;;;;;;5093916;28;20435;-75
2021/10/09 07:31:38;;;;;;;56.00;35.33;;;;;;;;;;5094052;28;20483;-75
2021/10/09 07:34:05;;;;;;;51.53;34.23;;;;;;;;;;5093692;28;20504;-76
2021/10/09 07:36:32;;;;;;;51.97;35.40;;;;;;;;;;5094011;28;20450;-75
2021/10/09 07:39:00;;;;;;;53.90;33.90;;;;;;;;;;5094275;28;20775;-75
2021/10/09 07:41:27;;;;;;;50.60;32.27;;;;;;;;;;5093729;28;20496;-75
2021/10/09 07:43:54;;;;;;;50.00;31.50;;;;;;;;;;5093956;28;20519;-76
2021/10/09 07:46:23;;;;;;;50.67;33.83;;;;;;;;;;5093719;28;20440;-75
2021/10/09 07:48:50;;;;;;;50.27;32.33;;;;;;;;;;5092819;28;20443;-75
2021/10/09 07:51:18;;;;;;;44.90;31.87;;;;;;;;;;5093380;28;20471;-74
2021/10/09 07:53:45;;;;;;;47.50;31.50;;;;;;;;;;5092685;28;20451;-75
2021/10/09 07:56:12;;;;;;;49.63;32.33;;;;;;;;;;5092916;28;20446;-74
2021/10/09 07:58:39;;;;;;;43.58;29.65;;;;;;;;;;5093147;28;21028;-75
2021/10/09 08:01:06;;;;;;;42.27;29.80;;;;;;;;;;5093127;28;20205;-75
2021/10/09 08:03:35;;;;;;;46.47;30.57;;;;;;;;;;5093427;28;20481;-74
2021/10/09 08:06:02;;;;;;;46.40;31.53;;;;;;;;;;5093287;28;20457;-74
2021/10/09 08:08:30;;;;;;;42.97;30.70;;;;;;;;;;5092897;28;20997;-75
2021/10/09 08:10:57;;;;;;;43.53;30.90;;;;;;;;;;5092944;28;20483;-74
2021/10/09 08:13:24;;;;;;;45.20;31.17;;;;;;;;;;5092501;28;20444;-75
2021/10/09 08:15:51;;;;;;;44.07;32.50;;;;;;;;;;5092207;28;20443;-74
2021/10/09 08:18:18;;;;;;;44.80;32.13;;;;;;;;;;5092753;28;20432;-74
2021/10/09 08:20:50;;;;;;;46.60;32.13;;;;;;;;;;5091910;28;20455;-74
2021/10/09 08:23:20;;;;;;;54.97;33.30;;;;;;;;;;5093045;28;20434;-75
2021/10/09 08:37:06;;;;;;;37.87;30.20;;;;;;;;;;5092502;28;20411;-74
2021/10/09 08:39:34;;;;;;;46.03;29.07;;;;;;;;;;5092943;28;20434;-74
2021/10/09 08:42:01;;;;;;;35.10;27.43;;;;;;;;;;5091953;28;20461;-75
2021/10/09 08:44:28;;;;;;;51.07;30.03;;;;;;;;;;5092387;28;20443;-75
2021/10/09 08:46:55;;;;;;;38.50;28.70;;;;;;;;;;5092528;28;20802;-75
2021/10/09 08:49:24;;;;;;;44.50;29.37;;;;;;;;;;5091571;28;20544;-75
2021/10/09 08:51:52;;;;;;;41.63;27.07;;;;;;;;;;5092505;28;20904;-74
2021/10/09 08:54:21;;;;;;;37.57;26.77;;;;;;;;;;5092594;28;20447;-75
2021/10/09 08:56:49;;;;;;;36.93;27.53;;;;;;;;;;5091954;28;20431;-75
2021/10/09 08:59:21;;;;;;;43.10;27.97;;;;;;;;;;5093474;28;20442;-75
2021/10/09 09:02:03;;;;;;;42.00;26.53;;;;;;;;;;5096591;28;20917;-74
2021/10/09 09:04:42;;;;;;;39.83;26.10;;;;;;;;;;5095969;28;20566;-75
2021/10/09 09:27:12;;;;;;;33.77;23.33;;;;;;;;;;5096360;28;20398;-74
2021/10/09 09:32:41;;;;;;;34.93;23.17;;;;;;;;;;5096189;28;20983;-74
2021/10/09 09:40:39;;;;;;;33.00;23.50;;;;;;;;;;5062451;28;20492;-74
2021/10/09 09:43:07;;;;;;;37.30;24.30;;;;;;;;;;5096234;28;20463;-74
2021/10/09 09:45:36;;;;;;;37.00;22.53;;;;;;;;;;5096963;28;20441;-74
2021/10/09 09:48:04;;;;;;;28.87;24.07;;;;;;;;;;5095782;28;20455;-75
2021/10/09 09:50:32;;;;;;;36.20;22.77;;;;;;;;;;5095653;28;20444;-75
2021/10/09 09:53:01;;;;;;;30.60;22.90;;;;;;;;;;5095843;28;20438;-75
2021/10/09 09:55:28;;;;;;;29.93;22.30;;;;;;;;;;5095880;28;20439;-75
2021/10/09 09:57:57;;;;;;;32.10;22.60;;;;;;;;;;5095949;28;20535;-76
2021/10/09 10:00:28;;;;;;;30.80;21.53;;;;;;;;;;5095918;28;20452;-76
2021/10/09 10:02:56;;;;;;;26.37;23.03;;;;;;;;;;5096134;28;20566;-75
2021/10/09 10:05:26;;;;;;;24.83;19.80;;;;;;;;;;5094821;28;20440;-75
2021/10/09 10:07:53;;;;;;;36.20;22.07;;;;;;;;;;5094767;28;20824;-75
2021/10/09 10:10:21;;;;;;;32.63;24.57;;;;;;;;;;5094313;28;20441;-74
2021/10/09 10:12:49;;;;;;;31.37;21.53;;;;;;;;;;5094663;28;20475;-74
2021/10/09 10:15:16;;;;;;;26.40;21.70;;;;;;;;;;5094462;28;20444;-74
2021/10/09 10:17:45;;;;;;;35.33;23.40;;;;;;;;;;5094745;28;20451;-73
2021/10/09 10:20:13;;;;;;;26.33;20.23;;;;;;;;;;5095198;28;20530;-75
2021/10/09 10:22:56;;;;;;;28.50;19.40;;;;;;;;;;5095117;28;20447;-75
2021/10/09 10:25:37;;;;;;;32.73;24.10;;;;;;;;;;5094499;28;20952;-74
2021/10/09 10:28:06;;;;;;;34.33;21.40;;;;;;;;;;5094292;28;20427;-75
2021/10/09 10:30:34;;;;;;;27.43;20.90;;;;;;;;;;5094236;28;20443;-74
2021/10/09 10:33:19;;;;;;;30.83;20.87;;;;;;;;;;5094265;28;20487;-74
2021/10/09 10:35:48;;;;;;;29.83;21.03;;;;;;;;;;5094620;28;20442;-74
2021/10/09 10:38:35;;;;;;;30.80;20.23;;;;;;;;;;5094517;28;20450;-74
2021/10/09 10:41:03;;;;;;;26.63;20.07;;;;;;;;;;5095263;28;20455;-75
2021/10/09 10:43:43;;;;;;;25.33;20.83;;;;;;;;;;5094229;28;20428;-76
2021/10/09 10:46:31;;;;;;;29.10;19.80;;;;;;;;;;5093887;28;20435;-74
2021/10/09 10:49:01;;;;;;;30.10;19.90;;;;;;;;;;5094391;28;20508;-75
2021/10/09 10:51:45;;;;;;;30.23;21.43;;;;;;;;;;5093429;28;20570;-76
2021/10/09 10:57:16;;;;;;;28.07;20.03;;;;;;;;;;5078278;28;20428;-75
2021/10/09 10:59:49;;;;;;;26.03;21.13;;;;;;;;;;5093660;28;20442;-75
2021/10/09 11:02:17;;;;;;;25.97;21.43;;;;;;;;;;5094036;28;20455;-74
2021/10/09 11:04:45;;;;;;;28.90;21.27;;;;;;;;;;5094373;28;20484;-74
2021/10/09 11:07:14;;;;;;;28.37;21.53;;;;;;;;;;5093334;28;20555;-75
2021/10/09 11:09:42;;;;;;;29.33;21.17;;;;;;;;;;5093878;28;20476;-75
2021/10/09 11:12:26;;;;;;;22.03;18.83;;;;;;;;;;5093006;28;20491;-74
2021/10/09 11:14:53;;;;;;;33.33;21.53;;;;;;;;;;5093736;28;20432;-74
2021/10/09 11:17:20;;;;;;;27.20;21.10;;;;;;;;;;5094206;28;20526;-75
2021/10/09 11:19:49;;;;;;;32.93;21.53;;;;;;;;;;5093081;28;20953;-75
2021/10/09 11:22:18;;;;;;;22.40;18.53;;;;;;;;;;5092871;28;20490;-75
2021/10/09 11:24:46;;;;;;;31.80;19.63;;;;;;;;;;5093512;28;20449;-76
2021/10/09 11:27:14;;;;;;;28.43;20.40;;;;;;;;;;5093394;28;20436;-78
2021/10/09 11:29:42;;;;;;;39.13;20.63;;;;;;;;;;5093527;28;20544;-77
2021/10/09 11:32:11;;;;;;;29.60;19.43;;;;;;;;;;5092732;28;20496;-77
2021/10/09 11:34:51;;;;;;;25.33;19.33;;;;;;;;;;5092890;28;20453;-77
2021/10/09 11:37:20;;;;;;;33.03;19.80;;;;;;;;;;5093095;28;20927;-76
2021/10/09 11:39:48;;;;;;;23.73;18.30;;;;;;;;;;5093068;28;20463;-76
2021/10/09 11:42:18;;;;;;;22.70;18.13;;;;;;;;;;5093969;28;20478;-76
2021/10/09 11:44:50;;;;;;;25.80;19.57;;;;;;;;;;5093326;28;20453;-75
2021/10/09 11:53:28;;;;;;;27.30;21.43;;;;;;;;;;5092650;28;20442;-76
2021/10/09 11:56:00;;;;;;;25.80;17.50;;;;;;;;;;5093294;28;20751;-76
2021/10/09 11:58:29;;;;;;;24.63;18.50;;;;;;;;;;5092849;28;20440;-77
2021/10/09 12:00:56;;;;;;;19.53;16.87;;;;;;;;;;5093070;28;20445;-76
2021/10/09 12:03:30;;;;;;;20.80;18.00;;;;;;;;;;5092674;28;20479;-76
2021/10/09 12:05:58;;;;;;;28.60;17.77;;;;;;;;;;5092310;28;20457;-76
2021/10/09 12:08:27;;;;;;;35.00;18.33;;;;;;;;;;5092816;28;20439;-77
2021/10/09 12:11:14;;;;;;;31.03;17.23;;;;;;;;;;5092426;28;20812;-75
2021/10/09 12:13:49;;;;;;;26.50;18.40;;;;;;;;;;5093021;28;20443;-76
2021/10/09 12:16:16;;;;;;;27.67;17.03;;;;;;;;;;5092819;28;20437;-77
2021/10/09 12:18:47;;;;;;;18.43;15.30;;;;;;;;;;5092672;28;20430;-77
2021/10/09 12:21:14;;;;;;;27.17;16.50;;;;;;;;;;5092791;28;20528;-77
2021/10/09 12:23:43;;;;;;;22.07;16.60;;;;;;;;;;5092850;28;20437;-77
2021/10/09 12:26:12;;;;;;;17.87;15.90;;;;;;;;;;5092920;28;20521;-78
2021/10/09 12:28:54;;;;;;;27.73;15.07;;;;;;;;;;5092450;28;20439;-77
2021/10/09 12:31:28;;;;;;;18.00;15.97;;;;;;;;;;5091625;28;20933;-77
2021/10/09 12:33:55;;;;;;;24.80;16.57;;;;;;;;;;5094786;28;20456;-77
2021/10/09 12:36:31;;;;;;;19.73;14.73;;;;;;;;;;5096756;28;20458;-76
2021/10/09 12:39:20;;;;;;;16.90;14.80;;;;;;;;;;5097178;28;20456;-78
2021/10/09 12:41:47;;;;;;;23.10;15.93;;;;;;;;;;5096895;28;20443;-78
2021/10/09 12:44:14;;;;;;;21.40;14.10;;;;;;;;;;5096823;28;20450;-77
2021/10/09 12:46:41;;;;;;;23.53;15.40;;;;;;;;;;5096946;28;21022;-77
2021/10/09 12:49:08;;;;;;;20.83;14.20;;;;;;;;;;5096994;28;20957;-76
2021/10/09 12:51:35;;;;;;;21.67;14.97;;;;;;;;;;5097115;28;20811;-77
2021/10/09 12:54:06;;;;;;;20.03;14.00;;;;;;;;;;5096855;28;20438;-78
2021/10/09 12:56:33;;;;;;;18.23;14.20;;;;;;;;;;5097351;28;20498;-77
2021/10/09 12:59:01;;;;;;;19.83;15.27;;;;;;;;;;5097033;28;20439;-70
2021/10/09 13:01:28;;;;;;;23.20;15.17;;;;;;;;;;5096989;28;20441;-78
2021/10/09 13:03:55;;;;;;;23.43;16.20;;;;;;;;;;5096205;28;20987;-78
2021/10/09 13:06:22;;;;;;;20.50;15.47;;;;;;;;;;5096954;28;20437;-74
2021/10/09 13:08:49;;;;;;;20.53;14.73;;;;;;;;;;5096870;28;20438;-73
2021/10/09 13:11:22;;;;;;;21.63;15.13;;;;;;;;;;5097361;28;20499;-78
2021/10/09 13:13:49;;;;;;;20.90;15.57;;;;;;;;;;5099712;28;20961;-79
2021/10/09 13:16:17;;;;;;;19.10;16.47;;;;;;;;;;5100509;28;20438;-78
2021/10/09 13:18:44;;;;;;;22.40;15.67;;;;;;;;;;5102414;28;20526;-79
2021/10/09 13:21:11;;;;;;;20.33;15.63;;;;;;;;;;5102257;28;20512;-78
2021/10/09 13:23:38;;;;;;;25.90;18.20;;;;;;;;;;5102038;28;20446;-79
2021/10/09 13:26:06;;;;;;;18.30;15.57;;;;;;;;;;5102561;28;20509;-76
2021/10/09 13:28:36;;;;;;;25.67;15.63;;;;;;;;;;5101933;28;20858;-79
2021/10/09 13:31:04;;;;;;;22.13;16.20;;;;;;;;;;5103873;28;20592;-79
2021/10/09 13:33:31;;;;;;;22.53;17.10;;;;;;;;;;5104215;28;20515;-76
2021/10/09 13:35:58;;;;;;;26.00;18.70;;;;;;;;;;5105743;28;20458;-78
2021/10/09 13:38:30;;;;;;;18.93;16.00;;;;;;;;;;5098247;28;20446;-77
2021/10/09 13:40:57;;;;;;;27.37;16.23;;;;;;;;;;5103248;28;20464;-78
2021/10/09 13:43:24;;;;;;;17.70;15.27;;;;;;;;;;5101388;28;20532;-79
2021/10/09 13:45:53;;;;;;;16.30;14.17;;;;;;;;;;5098368;28;20451;-79
2021/10/09 13:48:20;;;;;;;16.20;13.80;;;;;;;;;;5099433;28;20447;-79
2021/10/09 13:50:49;;;;;;;17.70;14.80;;;;;;;;;;5098200;28;20440;-78
2021/10/09 13:53:16;;;;;;;18.53;14.13;;;;;;;;;;5098819;28;20470;-78
2021/10/09 13:55:43;;;;;;;18.00;14.03;;;;;;;;;;5098635;28;20930;-78
2021/10/09 13:58:11;;;;;;;17.27;14.27;;;;;;;;;;5097947;28;20443;-78
2021/10/09 14:00:39;;;;;;;17.50;14.03;;;;;;;;;;5100331;28;20950;-78
2021/10/09 14:03:08;;;;;;;20.60;13.27;;;;;;;;;;5098658;28;20472;-78
2021/10/09 14:05:35;;;;;;;16.60;12.67;;;;;;;;;;5097793;28;20446;-76
2021/10/09 14:08:03;;;;;;;18.07;14.90;;;;;;;;;;5097673;28;20541;-78
2021/10/09 14:10:30;;;;;;;18.13;13.90;;;;;;;;;;5096728;28;20763;-77
2021/10/09 14:12:58;;;;;;;20.77;13.90;;;;;;;;;;5095895;28;20907;-82
2021/10/09 14:15:25;;;;;;;17.27;14.53;;;;;;;;;;5095357;28;20441;-79
2021/10/09 14:17:53;;;;;;;21.50;16.80;;;;;;;;;;5094937;28;20439;-76
2021/10/09 14:20:22;;;;;;;17.57;13.10;;;;;;;;;;5095663;28;20527;-78
2021/10/09 14:22:49;;;;;;;17.07;15.23;;;;;;;;;;5095315;28;20522;-77
2021/10/09 14:25:16;;;;;;;17.37;13.63;;;;;;;;;;5095438;28;20526;-74
2021/10/09 14:27:44;;;;;;;18.07;12.80;;;;;;;;;;5095268;28;20808;-73
2021/10/09 14:30:12;;;;;;;15.50;13.00;;;;;;;;;;5095249;28;20451;-74
2021/10/09 14:32:39;;;;;;;18.70;13.13;;;;;;;;;;5094756;28;20958;-74
2021/10/09 14:35:06;;;;;;;22.67;14.57;;;;;;;;;;5093798;28;20525;-74
2021/10/09 14:37:35;;;;;;;16.53;13.50;;;;;;;;;;5093548;28;20533;-75
2021/10/09 14:40:02;;;;;;;15.83;13.47;;;;;;;;;;5093096;28;20444;-75
2021/10/09 14:42:30;;;;;;;17.67;13.83;;;;;;;;;;5093810;28;20447;-77
2021/10/09 14:44:57;;;;;;;18.37;12.20;;;;;;;;;;5093562;28;20515;-78
2021/10/09 14:50:17;;;;;;;20.17;13.30;;;;;;;;;;5093782;28;20444;-76
2021/10/09 14:52:55;;;;;;;17.37;13.07;;;;;;;;;;5093154;28;20462;-75
2021/10/09 14:55:49;;;;;;;15.70;12.03;;;;;;;;;;5093413;28;20430;-77
2021/10/09 15:01:39;;;;;;;18.93;13.60;;;;;;;;;;5093569;28;20909;-77
2021/10/09 15:20:47;;;;;;;22.23;13.77;;;;;;;;;;5095015;28;20405;-75
2021/10/09 15:23:14;;;;;;;18.10;14.50;;;;;;;;;;5094150;28;20929;-74
2021/10/09 15:25:44;;;;;;;19.37;12.10;;;;;;;;;;5094288;28;20525;-74
2021/10/09 15:28:11;;;;;;;17.73;14.17;;;;;;;;;;5094773;28;20448;-73
2021/10/09 15:30:38;;;;;;;14.90;13.03;;;;;;;;;;5094103;28;20445;-74
2021/10/09 15:33:06;;;;;;;14.87;12.97;;;;;;;;;;5094306;28;20930;-74
2021/10/09 15:35:34;;;;;;;17.60;13.43;;;;;;;;;;5094001;28;20438;-74
2021/10/09 15:38:01;;;;;;;17.77;12.20;;;;;;;;;;5094231;28;20529;-74
2021/10/09 15:40:28;;;;;;;23.27;13.53;;;;;;;;;;5094031;28;20472;-74
2021/10/09 15:42:57;;;;;;;16.77;13.70;;;;;;;;;;5093886;28;20528;-74
2021/10/09 15:45:24;;;;;;;20.63;13.67;;;;;;;;;;5093558;28;20451;-74
2021/10/09 15:47:53;;;;;;;16.53;14.33;;;;;;;;;;5094513;28;20445;-73
2021/10/09 15:50:20;;;;;;;18.10;15.50;;;;;;;;;;5093828;28;20433;-74
2021/10/09 15:52:48;;;;;;;21.20;15.50;;;;;;;;;;5093516;28;20475;-73
2021/10/09 15:55:15;;;;;;;16.13;12.80;;;;;;;;;;5093864;28;20496;-74
2021/10/09 15:57:43;;;;;;;13.20;11.77;;;;;;;;;;5093249;28;20935;-74
2021/10/09 16:00:12;;;;;;;12.90;11.17;;;;;;;;;;5094071;28;20437;-74
2021/10/09 16:02:40;;;;;;;13.90;10.77;;;;;;;;;;5093467;28;20543;-73
2021/10/09 16:05:08;;;;;;;12.90;11.10;;;;;;;;;;5093542;28;20437;-74
2021/10/09 16:07:37;;;;;;;16.30;11.30;;;;;;;;;;5092800;28;20524;-74
2021/10/09 16:10:05;;;;;;;13.57;11.13;;;;;;;;;;5093491;28;20483;-73
2021/10/09 16:12:33;;;;;;;13.47;11.80;;;;;;;;;;5093012;28;20473;-74
2021/10/09 16:15:00;;;;;;;17.20;11.80;;;;;;;;;;5093426;28;20452;-74
2021/10/09 16:17:30;;;;;;;20.80;12.30;;;;;;;;;;5093427;28;20445;-74
2021/10/09 16:19:57;;;;;;;14.03;10.67;;;;;;;;;;5094198;28;20440;-73
2021/10/09 16:22:25;;;;;;;14.37;10.57;;;;;;;;;;5092640;28;20442;-76
2021/10/09 16:24:53;;;;;;;13.00;11.33;;;;;;;;;;5092911;28;20460;-76
2021/10/09 16:27:20;;;;;;;16.73;11.50;;;;;;;;;;5093125;28;20437;-74
2021/10/09 16:29:47;;;;;;;22.67;12.23;;;;;;;;;;5091918;28;20450;-75
2021/10/09 16:32:15;;;;;;;17.07;12.47;;;;;;;;;;5092235;28;20447;-74
2021/10/09 16:34:44;;;;;;;14.67;10.80;;;;;;;;;;5092222;28;20496;-74
2021/10/09 16:37:11;;;;;;;13.97;10.93;;;;;;;;;;5091424;28;20967;-74
2021/10/09 16:39:38;;;;;;;17.80;12.33;;;;;;;;;;5091900;28;21018;-75
2021/10/09 16:42:05;;;;;;;14.37;10.97;;;;;;;;;;5092995;28;20448;-74